Time;durP1;ratioP1;P1;durP2;ratioP2;P2;SDS_P1;SDS_P2;PMS_P1;PMS_P2;Temp;Humidity;BMP_temperature;BMP_pressure;BME280_temperature;BME280_humidity;BME280_pressure;Samples;Min_cycle;Max_cycle;Signal;HPM_P1;HPM_P2
2022/06/17 00:01:40;;;;;;;8.18;7.43;;;17.20;93.00;;;;;;4935723;28;92585;-72
2022/06/17 00:04:08;;;;;;;8.57;7.82;;;17.10;93.10;;;;;;4952056;28;94435;-72
2022/06/17 00:06:56;;;;;;;8.45;7.75;;;17.10;93.10;;;;;;4952103;28;92895;-72
2022/06/17 00:09:26;;;;;;;7.30;6.65;;;17.10;93.10;;;;;;4937363;28;92438;-73
2022/06/17 00:11:54;;;;;;;10.63;7.40;;;17.00;93.30;;;;;;4937468;28;91716;-72
2022/06/17 00:14:33;;;;;;;8.75;7.97;;;17.00;93.40;;;;;;4935661;28;96072;-73
2022/06/17 00:17:09;;;;;;;9.60;6.95;;;17.00;93.40;;;;;;4937531;28;92835;-72
2022/06/17 00:19:36;;;;;;;7.63;6.93;;;16.90;93.50;;;;;;4934754;28;94843;-72
2022/06/17 00:22:03;;;;;;;8.57;6.93;;;16.90;93.60;;;;;;4935798;28;92459;-72
2022/06/17 00:24:32;;;;;;;7.65;6.95;;;16.80;93.60;;;;;;4919487;28;94334;-72
2022/06/17 00:26:59;;;;;;;10.02;6.97;;;16.80;93.70;;;;;;4937126;28;93025;-72
2022/06/17 00:29:29;;;;;;;9.20;8.40;;;16.80;93.70;;;;;;4903539;28;92455;-72
2022/06/17 00:31:57;;;;;;;8.95;8.23;;;16.80;93.80;;;;;;4935964;28;92583;-73
2022/06/17 00:34:25;;;;;;;9.02;8.25;;;16.80;93.90;;;;;;4935218;28;95540;-73
2022/06/17 00:36:56;;;;;;;8.80;7.90;;;16.70;94.00;;;;;;4935741;28;95374;-72
2022/06/17 00:39:29;;;;;;;8.15;7.03;;;16.70;94.10;;;;;;4951705;28;92524;-72
2022/06/17 00:42:03;;;;;;;9.00;8.20;;;16.70;94.20;;;;;;4935731;28;92522;-72
2022/06/17 00:44:42;;;;;;;9.82;8.85;;;16.70;94.30;;;;;;4935672;28;95600;-72
2022/06/17 00:47:26;;;;;;;8.60;7.80;;;16.60;94.40;;;;;;4934968;28;97543;-73
2022/06/17 00:50:00;;;;;;;8.85;8.07;;;16.70;94.40;;;;;;4935933;28;92545;-73
2022/06/17 00:52:39;;;;;;;10.00;7.78;;;16.60;94.50;;;;;;4937051;28;93070;-72
2022/06/17 00:55:16;;;;;;;9.50;8.18;;;16.60;94.60;;;;;;4951192;28;95927;-72
2022/06/17 00:57:44;;;;;;;9.07;8.18;;;16.50;94.60;;;;;;4936650;28;92990;-72
2022/06/17 01:00:22;;;;;;;9.25;8.40;;;16.50;94.70;;;;;;4951483;28;92481;-73
2022/06/17 01:02:53;;;;;;;8.98;8.13;;;16.50;94.80;;;;;;4935632;28;91867;-72
2022/06/17 01:05:28;;;;;;;8.05;7.35;;;16.40;94.90;;;;;;4938758;28;92375;-72
2022/06/17 01:08:00;;;;;;;10.82;9.25;;;16.50;95.00;;;;;;4925478;28;95270;-72
2022/06/17 01:10:28;;;;;;;8.45;7.53;;;16.40;95.00;;;;;;4956785;28;94796;-72
2022/06/17 01:12:57;;;;;;;10.25;9.25;;;16.40;95.00;;;;;;4941637;28;92496;-72
2022/06/17 01:15:27;;;;;;;9.35;8.38;;;16.40;95.10;;;;;;4941382;28;95589;-72
2022/06/17 01:17:58;;;;;;;8.70;7.90;;;16.40;95.10;;;;;;4957825;28;95408;-72
2022/06/17 01:20:28;;;;;;;9.35;8.45;;;16.30;95.20;;;;;;4925257;28;92555;-72
2022/06/17 01:22:58;;;;;;;8.60;7.80;;;16.40;95.20;;;;;;4942749;28;92518;-72
2022/06/17 01:25:30;;;;;;;10.68;9.27;;;16.40;95.20;;;;;;4941063;28;95700;-73
2022/06/17 01:28:05;;;;;;;9.13;8.32;;;16.30;95.20;;;;;;4957997;28;95696;-73
2022/06/17 01:30:36;;;;;;;10.57;9.57;;;16.40;95.30;;;;;;4925278;28;92653;-72
2022/06/17 01:33:18;;;;;;;9.50;8.50;;;16.30;95.30;;;;;;4941156;28;92458;-72
2022/06/17 01:35:48;;;;;;;10.07;8.80;;;16.30;95.30;;;;;;4940006;28;101227;-72
2022/06/17 01:38:16;;;;;;;9.57;8.68;;;16.30;95.30;;;;;;4940880;28;97829;-72
2022/06/17 01:40:43;;;;;;;11.50;10.52;;;16.30;95.40;;;;;;4957810;28;92528;-73
2022/06/17 01:43:13;;;;;;;10.52;9.50;;;16.30;95.30;;;;;;4942117;28;92465;-72
2022/06/17 01:45:46;;;;;;;10.88;9.85;;;16.30;95.60;;;;;;4941080;28;96044;-72
2022/06/17 01:48:17;;;;;;;12.87;11.87;;;16.30;95.30;;;;;;4940931;28;93919;-72
2022/06/17 01:50:48;;;;;;;10.73;9.65;;;16.20;95.30;;;;;;4940726;28;92478;-72
2022/06/17 01:53:20;;;;;;;11.15;10.15;;;16.20;95.40;;;;;;4941450;28;91758;-72
2022/06/17 01:55:54;;;;;;;13.13;10.73;;;16.20;95.40;;;;;;4924584;28;95563;-72
2022/06/17 01:58:41;;;;;;;12.57;11.35;;;16.20;95.40;;;;;;4956791;28;94189;-72
2022/06/17 02:01:10;;;;;;;12.40;10.60;;;16.20;95.40;;;;;;4923082;28;95356;-72
2022/06/17 02:03:47;;;;;;;12.15;11.00;;;16.10;95.40;;;;;;4940239;28;92496;-72
2022/06/17 02:06:22;;;;;;;11.15;10.05;;;16.20;95.40;;;;;;4941923;28;93182;-72
2022/06/17 02:08:51;;;;;;;12.57;11.30;;;16.10;95.40;;;;;;4940346;28;95611;-72
2022/06/17 02:11:20;;;;;;;13.18;11.88;;;16.10;95.40;;;;;;4924384;28;92476;-72
2022/06/17 02:13:54;;;;;;;12.30;11.10;;;16.10;95.40;;;;;;4940467;28;92615;-72
2022/06/17 02:16:45;;;;;;;12.65;11.25;;;16.10;95.40;;;;;;4939540;28;93252;-72
2022/06/17 02:19:35;;;;;;;13.02;11.82;;;16.00;95.40;;;;;;4935612;28;92543;-72
2022/06/17 02:22:10;;;;;;;13.02;11.75;;;16.00;95.40;;;;;;4937217;28;92487;-72
2022/06/17 02:24:39;;;;;;;13.32;12.02;;;16.00;95.30;;;;;;4936928;28;92601;-72
2022/06/17 02:27:09;;;;;;;12.55;11.27;;;16.00;95.30;;;;;;4936971;28;95585;-72
2022/06/17 02:29:38;;;;;;;12.20;11.00;;;16.00;95.40;;;;;;4937853;28;95432;-73
2022/06/17 02:32:07;;;;;;;12.82;10.85;;;16.00;95.40;;;;;;4938381;28;92501;-73
2022/06/17 02:34:51;;;;;;;12.65;11.38;;;16.00;95.20;;;;;;4936656;28;94431;-72
2022/06/17 02:37:19;;;;;;;11.93;10.63;;;16.00;95.20;;;;;;4936662;28;95874;-72
2022/06/17 02:39:49;;;;;;;13.60;12.30;;;16.00;95.20;;;;;;4936551;28;95346;-73
2022/06/17 02:42:29;;;;;;;11.25;10.10;;;16.00;95.00;;;;;;4936861;28;92934;-72
2022/06/17 02:45:00;;;;;;;11.90;10.63;;;16.00;94.90;;;;;;4937041;28;91867;-72
2022/06/17 02:47:29;;;;;;;10.02;9.13;;;16.00;94.80;;;;;;4936456;28;95545;-72
2022/06/17 02:49:57;;;;;;;14.02;10.57;;;16.00;94.70;;;;;;4937027;28;94954;-72
2022/06/17 02:52:35;;;;;;;10.85;9.75;;;16.00;94.60;;;;;;4935440;28;95502;-72
2022/06/17 02:55:13;;;;;;;10.85;9.70;;;16.10;94.40;;;;;;4937248;28;92547;-72
2022/06/17 02:57:40;;;;;;;10.30;9.23;;;16.00;94.40;;;;;;4953145;28;95980;-72
2022/06/17 03:00:21;;;;;;;13.07;11.95;;;16.00;94.40;;;;;;4936898;28;95552;-72
2022/06/17 03:02:54;;;;;;;12.88;11.57;;;16.10;94.40;;;;;;4920466;28;92546;-72
2022/06/17 03:05:25;;;;;;;10.80;9.70;;;16.10;94.40;;;;;;4936530;28;92541;-72
2022/06/17 03:07:55;;;;;;;11.45;10.38;;;16.00;94.50;;;;;;4953017;28;95538;-72
2022/06/17 03:10:40;;;;;;;13.57;12.23;;;16.00;94.50;;;;;;4936634;28;95335;-72
2022/06/17 03:13:28;;;;;;;11.02;10.02;;;16.10;94.50;;;;;;4937787;28;92477;-72
2022/06/17 03:15:58;;;;;;;11.98;10.85;;;16.10;94.50;;;;;;4937842;28;92387;-72
2022/06/17 03:18:27;;;;;;;11.75;10.50;;;16.00;94.60;;;;;;4934655;28;97901;-72
2022/06/17 03:20:55;;;;;;;13.93;11.23;;;16.00;94.60;;;;;;4936034;28;97861;-72
2022/06/17 03:23:27;;;;;;;11.85;10.57;;;16.00;94.60;;;;;;4936316;28;92498;-73
2022/06/17 03:26:00;;;;;;;11.50;10.20;;;16.00;94.70;;;;;;4936354;28;92463;-72
2022/06/17 03:28:43;;;;;;;11.80;10.55;;;16.00;94.70;;;;;;4934731;28;95306;-72
2022/06/17 03:31:34;;;;;;;12.57;10.20;;;16.00;94.50;;;;;;4935940;28;95960;-72
2022/06/17 03:34:06;;;;;;;11.68;9.57;;;16.00;94.60;;;;;;4936186;28;93123;-72
2022/06/17 03:36:41;;;;;;;10.10;9.10;;;16.00;94.60;;;;;;4936728;28;91702;-72
2022/06/17 03:39:18;;;;;;;11.40;10.40;;;16.00;94.40;;;;;;4936562;28;95531;-72
2022/06/17 03:41:49;;;;;;;10.75;9.70;;;16.10;94.30;;;;;;4935715;28;95457;-72
2022/06/17 03:44:22;;;;;;;12.10;11.00;;;16.20;94.40;;;;;;4934906;28;94871;-72
2022/06/17 03:47:24;;;;;;;11.38;9.98;;;16.30;94.30;;;;;;4935670;28;92470;-72
2022/06/17 03:50:00;;;;;;;9.90;9.00;;;16.50;94.00;;;;;;4951866;28;93308;-72
2022/06/17 03:52:43;;;;;;;10.32;9.20;;;16.60;94.00;;;;;;4920225;28;94242;-72
2022/06/17 03:55:17;;;;;;;9.80;8.90;;;16.90;93.90;;;;;;4936297;28;92560;-72
2022/06/17 03:57:47;;;;;;;11.82;9.82;;;17.30;93.30;;;;;;4920161;28;92807;-72
2022/06/17 04:00:40;;;;;;;10.38;9.40;;;17.80;92.40;;;;;;4952404;28;95350;-73
2022/06/17 04:03:17;;;;;;;10.43;9.30;;;18.30;91.60;;;;;;4936203;28;95725;-72
2022/06/17 04:05:50;;;;;;;11.18;9.82;;;18.60;90.60;;;;;;4952195;28;92532;-72
2022/06/17 04:08:17;;;;;;;9.60;8.63;;;18.80;90.20;;;;;;4920190;28;92584;-72
2022/06/17 04:10:45;;;;;;;10.68;9.70;;;18.80;90.00;;;;;;4934563;28;98034;-73
2022/06/17 04:13:17;;;;;;;11.05;9.10;;;18.80;89.80;;;;;;4920064;28;97744;-72
2022/06/17 04:16:26;;;;;;;10.63;9.48;;;18.80;89.50;;;;;;4935879;28;92672;-72
2022/06/17 04:19:11;;;;;;;10.80;9.82;;;18.70;89.70;;;;;;4934914;28;92468;-72
2022/06/17 04:21:39;;;;;;;10.55;9.55;;;18.70;89.10;;;;;;4919738;28;95094;-73
2022/06/17 04:24:16;;;;;;;13.05;9.75;;;18.60;89.20;;;;;;4919707;28;95385;-72
2022/06/17 04:26:57;;;;;;;10.68;9.60;;;18.70;88.90;;;;;;4937309;28;92523;-73
2022/06/17 04:29:38;;;;;;;13.90;10.43;;;18.80;88.90;;;;;;4936248;28;92213;-73
2022/06/17 04:32:31;;;;;;;11.32;10.25;;;18.90;88.40;;;;;;4935088;28;95078;-73
2022/06/17 04:34:58;;;;;;;12.00;10.68;;;19.00;88.10;;;;;;4918832;28;95621;-72
2022/06/17 04:37:26;;;;;;;12.30;10.00;;;19.00;88.40;;;;;;4950295;28;94998;-73
2022/06/17 04:40:19;;;;;;;13.30;10.38;;;19.00;88.00;;;;;;4934589;28;92898;-72
2022/06/17 04:43:22;;;;;;;12.48;11.38;;;19.10;87.40;;;;;;4935608;28;93294;-73
2022/06/17 04:45:58;;;;;;;12.45;11.25;;;19.00;87.70;;;;;;4934630;28;95402;-73
2022/06/17 04:48:26;;;;;;;12.70;11.45;;;19.00;87.90;;;;;;4935231;28;93005;-72
2022/06/17 04:50:54;;;;;;;12.80;11.60;;;19.00;88.00;;;;;;4918727;28;92453;-72
2022/06/17 04:53:23;;;;;;;13.18;11.77;;;19.10;88.10;;;;;;4934693;28;94134;-72
2022/06/17 04:56:25;;;;;;;12.93;11.80;;;19.10;88.10;;;;;;4935217;28;92571;-73
2022/06/17 04:59:22;;;;;;;11.95;10.80;;;19.30;88.30;;;;;;4936389;28;92893;-73
2022/06/17 05:01:51;;;;;;;13.65;12.38;;;19.40;88.30;;;;;;4934289;28;92869;-73
2022/06/17 05:04:36;;;;;;;13.68;11.55;;;19.30;88.30;;;;;;4933646;28;94836;-73
2022/06/17 05:07:04;;;;;;;14.48;11.60;;;19.40;88.30;;;;;;4918606;28;97992;-73
2022/06/17 05:09:37;;;;;;;12.35;11.18;;;19.50;88.10;;;;;;4935208;28;93083;-73
2022/06/17 05:12:14;;;;;;;13.30;12.07;;;19.50;88.30;;;;;;4934776;28;92491;-72
2022/06/17 05:14:56;;;;;;;12.32;11.05;;;19.50;88.50;;;;;;4934179;28;95507;-73
2022/06/17 05:17:23;;;;;;;14.13;11.35;;;19.50;88.30;;;;;;4934408;28;95275;-73
2022/06/17 05:19:51;;;;;;;13.25;12.15;;;19.40;88.60;;;;;;4934372;28;92440;-73
2022/06/17 05:22:41;;;;;;;12.38;11.18;;;19.40;88.60;;;;;;4934657;28;91781;-73
2022/06/17 05:25:18;;;;;;;14.00;12.52;;;19.50;88.40;;;;;;4918233;28;95842;-73
2022/06/17 05:27:46;;;;;;;11.55;10.43;;;19.50;88.80;;;;;;4934309;28;95260;-73
2022/06/17 05:30:14;;;;;;;12.77;11.52;;;19.40;89.00;;;;;;4933285;28;94956;-73
2022/06/17 05:32:46;;;;;;;12.52;11.52;;;19.40;89.20;;;;;;4934107;28;92488;-72
2022/06/17 05:35:13;;;;;;;12.35;11.13;;;19.40;89.20;;;;;;4934275;28;95806;-73
2022/06/17 05:37:41;;;;;;;13.73;12.45;;;19.40;89.50;;;;;;4934122;28;95257;-73
2022/06/17 05:40:10;;;;;;;12.43;11.00;;;19.40;89.60;;;;;;4918339;28;92431;-73
2022/06/17 05:42:39;;;;;;;14.65;13.00;;;19.40;89.70;;;;;;4918196;28;92643;-72
2022/06/17 05:45:16;;;;;;;13.23;11.77;;;19.40;90.20;;;;;;4933825;28;95457;-72
2022/06/17 05:48:00;;;;;;;13.77;12.40;;;19.50;90.00;;;;;;4920592;28;94888;-72
2022/06/17 05:50:39;;;;;;;11.63;10.45;;;19.50;90.10;;;;;;4919935;28;92727;-72
2022/06/17 05:53:44;;;;;;;12.05;10.95;;;19.50;90.00;;;;;;4916526;28;92566;-72
2022/06/17 05:56:31;;;;;;;13.52;12.32;;;19.50;90.10;;;;;;4915429;28;96563;-72
2022/06/17 05:58:58;;;;;;;14.65;12.25;;;19.60;90.00;;;;;;4928690;28;98004;-72
2022/06/17 06:01:25;;;;;;;12.45;11.27;;;19.70;89.70;;;;;;4938378;28;92434;-72
2022/06/17 06:03:52;;;;;;;12.25;11.02;;;19.70;89.60;;;;;;4936888;28;92470;-73
2022/06/17 06:06:19;;;;;;;13.05;11.85;;;19.80;89.40;;;;;;4937287;28;95810;-73
2022/06/17 06:08:50;;;;;;;15.00;12.32;;;19.90;89.20;;;;;;4921412;28;95500;-73
2022/06/17 06:11:18;;;;;;;12.15;11.05;;;20.00;89.10;;;;;;4937153;28;92549;-73
2022/06/17 06:13:45;;;;;;;13.68;10.90;;;20.10;88.90;;;;;;4937445;28;91732;-73
2022/06/17 06:16:15;;;;;;;12.50;11.30;;;20.30;88.80;;;;;;4937001;28;96015;-73
2022/06/17 06:18:47;;;;;;;12.35;11.05;;;20.40;88.20;;;;;;4937457;28;93035;-73
2022/06/17 06:21:21;;;;;;;13.70;12.02;;;20.40;88.00;;;;;;4920686;28;95667;-73
2022/06/17 06:23:49;;;;;;;15.95;10.73;;;20.50;88.00;;;;;;4937007;28;93546;-73
2022/06/17 06:26:21;;;;;;;12.93;11.50;;;20.60;88.10;;;;;;4937039;28;94820;-73
2022/06/17 06:28:56;;;;;;;12.77;10.45;;;20.70;87.90;;;;;;4921574;28;94945;-72
2022/06/17 06:31:32;;;;;;;12.65;11.30;;;20.70;88.00;;;;;;4937079;28;92446;-73
2022/06/17 06:34:04;;;;;;;15.50;11.88;;;20.80;88.00;;;;;;4936774;28;92493;-73
2022/06/17 06:36:38;;;;;;;11.85;10.32;;;20.80;87.90;;;;;;4936869;28;95629;-73
2022/06/17 06:39:05;;;;;;;12.07;11.07;;;20.80;88.20;;;;;;4920934;28;95748;-73
2022/06/17 06:41:32;;;;;;;11.52;10.43;;;20.90;88.10;;;;;;4936750;28;92593;-73
2022/06/17 06:44:00;;;;;;;12.73;10.77;;;20.90;88.00;;;;;;4920481;28;92553;-73
2022/06/17 06:46:50;;;;;;;11.75;10.57;;;20.90;88.00;;;;;;4925945;28;95457;-73
2022/06/17 06:49:40;;;;;;;12.05;10.65;;;20.90;88.20;;;;;;4939470;28;95168;-73
2022/06/17 06:52:07;;;;;;;11.80;10.70;;;20.90;88.40;;;;;;4936414;28;92501;-73
2022/06/17 06:54:34;;;;;;;11.38;10.07;;;21.00;88.40;;;;;;4938148;28;92777;-73
2022/06/17 06:57:01;;;;;;;12.25;10.77;;;21.10;88.70;;;;;;4920333;28;95858;-73
2022/06/17 06:59:48;;;;;;;13.07;10.95;;;21.20;88.40;;;;;;4936288;28;95549;-73
2022/06/17 07:02:15;;;;;;;11.93;10.80;;;21.40;88.10;;;;;;4919836;28;92534;-73
2022/06/17 07:04:42;;;;;;;11.40;10.30;;;21.50;87.80;;;;;;4920575;28;91840;-72
2022/06/17 07:07:11;;;;;;;11.40;10.30;;;21.70;87.30;;;;;;4936027;28;95798;-73
2022/06/17 07:09:38;;;;;;;12.35;10.20;;;21.80;86.50;;;;;;4937558;28;93197;-73
2022/06/17 07:12:06;;;;;;;16.42;9.85;;;22.00;85.80;;;;;;4919033;28;94922;-73
2022/06/17 07:14:33;;;;;;;10.70;9.60;;;22.20;85.30;;;;;;4921067;28;92498;-73
2022/06/17 07:17:00;;;;;;;9.93;8.98;;;22.40;84.50;;;;;;4933922;28;93298;-73
2022/06/17 07:19:27;;;;;;;10.20;9.20;;;22.60;84.30;;;;;;4936714;28;94418;-70
2022/06/17 07:21:54;;;;;;;10.57;8.73;;;22.80;83.50;;;;;;4937592;28;93409;-74
2022/06/17 07:24:21;;;;;;;10.13;8.73;;;23.00;82.60;;;;;;4937451;28;92805;-72
2022/06/17 07:26:48;;;;;;;9.55;8.65;;;23.10;81.70;;;;;;4927863;28;95746;-71
2022/06/17 07:29:15;;;;;;;9.63;8.60;;;23.30;81.30;;;;;;4936330;28;93215;-70
2022/06/17 07:31:42;;;;;;;9.60;8.57;;;23.50;80.60;;;;;;4936264;28;92950;-72
2022/06/17 07:34:09;;;;;;;10.05;9.00;;;23.60;79.50;;;;;;4919804;28;92598;-72
2022/06/17 07:42:07;;;;;;;8.48;7.57;;;24.30;77.30;;;;;;4953022;28;93765;-72
2022/06/17 07:44:35;;;;;;;9.27;8.02;;;24.50;76.80;;;;;;4952411;28;92684;-72
2022/06/17 07:47:03;;;;;;;8.90;8.10;;;24.70;75.70;;;;;;4921063;28;98008;-73
2022/06/17 07:49:30;;;;;;;8.77;7.97;;;24.80;75.70;;;;;;4920437;28;96217;-73
2022/06/17 07:51:57;;;;;;;9.18;8.13;;;24.90;75.00;;;;;;4938080;28;93329;-72
2022/06/17 07:54:24;;;;;;;8.13;7.40;;;25.00;73.80;;;;;;4935997;28;91717;-72
2022/06/17 07:56:54;;;;;;;8.23;7.28;;;25.10;73.70;;;;;;4935749;28;93084;-73
2022/06/17 07:59:21;;;;;;;8.80;8.15;;;25.30;74.20;;;;;;4936773;28;103390;-74
2022/06/17 08:01:48;;;;;;;8.18;7.40;;;25.50;72.80;;;;;;4943418;28;96127;-73
2022/06/17 08:04:15;;;;;;;10.05;8.40;;;25.80;72.40;;;;;;4938632;28;92963;-72
2022/06/17 08:06:49;;;;;;;9.85;8.90;;;26.00;71.70;;;;;;4956579;28;93049;-72
2022/06/17 08:09:17;;;;;;;9.73;7.65;;;26.20;71.00;;;;;;4956851;28;92890;-72
2022/06/17 08:11:45;;;;;;;8.90;8.20;;;26.40;70.40;;;;;;4939407;28;92494;-71
2022/06/17 08:14:12;;;;;;;8.90;8.00;;;26.60;69.80;;;;;;4939111;28;92446;-71
2022/06/17 08:16:39;;;;;;;8.85;7.95;;;26.80;69.00;;;;;;4934038;28;93311;-73
2022/06/17 08:19:07;;;;;;;8.77;8.07;;;27.00;68.60;;;;;;4956268;28;92922;-74
2022/06/17 08:21:35;;;;;;;9.88;8.70;;;27.10;67.70;;;;;;4955176;28;92497;-71
2022/06/17 08:24:22;;;;;;;7.40;6.57;;;27.30;67.60;;;;;;4955860;28;92951;-72
2022/06/17 08:26:49;;;;;;;8.55;7.75;;;27.70;67.30;;;;;;4953945;28;95516;-72
2022/06/17 08:29:16;;;;;;;9.40;7.40;;;28.20;66.20;;;;;;4954944;28;95439;-75
2022/06/17 08:34:49;;;;;;;7.45;6.85;;;28.90;62.50;;;;;;4956358;28;92524;-75
2022/06/17 08:37:17;;;;;;;7.88;7.05;;;29.00;61.90;;;;;;4938903;28;95851;-74
2022/06/17 08:39:46;;;;;;;7.75;7.00;;;29.20;61.50;;;;;;4043666;28;10000556;-73
2022/06/17 08:42:34;;;;;;;8.05;6.13;;;29.20;61.20;;;;;;4878178;28;93587;-71
2022/06/17 08:45:32;;;;;;;7.88;6.93;;;29.30;61.30;;;;;;4936875;28;93041;-72
2022/06/17 08:48:31;;;;;;;7.55;6.85;;;29.30;61.40;;;;;;4935475;28;92516;-72
2022/06/17 08:51:01;;;;;;;9.87;5.67;;;29.40;61.80;;;;;;4012599;28;10000225;-72
2022/06/17 08:53:55;;;;;;;6.38;4.90;;;29.80;61.30;;;;;;4914995;28;97039;-75
2022/06/17 08:56:39;;;;;;;6.90;5.30;;;30.90;58.60;;;;;;4922823;28;92836;-76
2022/06/17 08:59:24;;;;;;;6.25;5.00;;;31.70;56.00;;;;;;4013311;28;10000635;-75
2022/06/17 09:02:19;;;;;;;6.25;5.38;;;32.40;53.20;;;;;;4922809;28;93767;-72
2022/06/17 09:04:53;;;;;;;5.53;5.00;;;32.90;52.70;;;;;;4935242;28;95925;-72
2022/06/17 09:07:48;;;;;;;5.63;4.50;;;33.10;49.90;;;;;;4934780;28;95548;-72
2022/06/17 09:10:50;;;;;;;4.95;3.70;;;33.10;49.10;;;;;;4919081;28;92569;-72
2022/06/17 09:13:42;;;;;;;6.03;5.03;;;32.80;49.10;;;;;;4936986;28;91641;-72
2022/06/17 09:16:37;;;;;;;6.72;5.10;;;32.50;49.30;;;;;;4951213;28;95387;-72
2022/06/17 09:19:05;;;;;;;5.78;4.47;;;32.30;49.90;;;;;;4935188;28;95614;-72
2022/06/17 09:21:52;;;;;;;12.98;4.80;;;32.00;50.20;;;;;;4935201;28;94793;-72
2022/06/17 09:24:41;;;;;;;4.65;4.10;;;32.00;50.20;;;;;;4951229;28;92540;-72
2022/06/17 09:27:16;;;;;;;4.97;3.50;;;31.70;50.50;;;;;;4937401;28;95835;-72
2022/06/17 09:30:00;;;;;;;6.38;4.53;;;31.40;50.70;;;;;;4939681;28;93116;-72
2022/06/17 09:32:33;;;;;;;5.35;4.85;;;31.30;50.90;;;;;;4938141;28;92548;-72
2022/06/17 09:35:09;;;;;;;6.18;5.30;;;31.10;51.40;;;;;;4939969;28;92524;-72
2022/06/17 09:38:06;;;;;;;5.55;5.10;;;31.10;51.20;;;;;;4939509;28;93124;-72
2022/06/17 09:40:45;;;;;;;5.47;4.20;;;31.10;51.10;;;;;;4939639;28;93055;-72
2022/06/17 09:43:29;;;;;;;5.88;5.28;;;30.90;51.90;;;;;;4939932;28;92383;-72
2022/06/17 09:46:21;;;;;;;5.47;4.55;;;31.00;52.40;;;;;;4939729;28;92482;-72
2022/06/17 09:48:59;;;;;;;6.70;5.00;;;30.90;53.10;;;;;;4937148;28;95669;-72
2022/06/17 09:51:35;;;;;;;7.07;4.88;;;30.80;52.60;;;;;;4939442;28;95438;-72
2022/06/17 09:54:12;;;;;;;5.90;4.88;;;30.70;52.50;;;;;;4938443;28;92393;-72
2022/06/17 09:56:49;;;;;;;6.20;4.35;;;30.70;52.00;;;;;;4939698;28;92429;-72
2022/06/17 09:59:38;;;;;;;4.60;4.22;;;30.70;52.00;;;;;;4937552;28;96015;-72
2022/06/17 10:02:22;;;;;;;5.50;5.00;;;30.60;52.10;;;;;;4939008;28;92701;-72
2022/06/17 10:04:54;;;;;;;5.80;5.20;;;30.60;51.80;;;;;;4939580;28;92433;-72
2022/06/17 10:07:31;;;;;;;4.93;4.47;;;30.60;52.10;;;;;;4939443;28;91728;-72
2022/06/17 10:10:23;;;;;;;5.90;4.30;;;30.70;52.50;;;;;;4937664;28;95958;-72
2022/06/17 10:13:06;;;;;;;5.57;5.07;;;30.90;51.50;;;;;;4938145;28;93106;-72
2022/06/17 10:19:00;;;;;;;6.28;4.68;;;31.20;51.10;;;;;;4939214;28;92463;-72
2022/06/17 10:21:48;;;;;;;7.40;5.55;;;31.40;50.80;;;;;;4938927;28;93054;-72
2022/06/17 10:24:27;;;;;;;7.82;6.03;;;31.40;50.80;;;;;;4938950;28;92877;-72
2022/06/17 10:27:17;;;;;;;6.15;5.32;;;31.50;50.70;;;;;;4937975;28;92910;-72
2022/06/17 10:30:20;;;;;;;5.80;4.80;;;31.50;50.90;;;;;;4939028;28;92522;-71
2022/06/17 10:32:50;;;;;;;7.53;5.00;;;31.40;51.50;;;;;;4938822;28;93165;-72
2022/06/17 10:35:38;;;;;;;6.05;5.10;;;31.20;52.10;;;;;;4938318;28;109494;-72
2022/06/17 10:38:16;;;;;;;8.20;5.30;;;31.20;51.00;;;;;;4937492;28;92424;-72
2022/06/17 10:40:43;;;;;;;6.95;5.15;;;31.00;52.00;;;;;;4938752;28;92429;-72
2022/06/17 10:43:19;;;;;;;5.60;5.20;;;30.90;52.30;;;;;;4937290;28;95621;-72
2022/06/17 10:45:48;;;;;;;6.63;6.03;;;31.00;52.90;;;;;;4936922;28;98070;-72
2022/06/17 10:48:33;;;;;;;4.93;4.30;;;30.90;53.20;;;;;;4938629;28;92428;-72
2022/06/17 10:51:02;;;;;;;5.20;4.72;;;30.90;53.20;;;;;;4938775;28;92471;-72
2022/06/17 10:53:45;;;;;;;4.90;4.40;;;30.70;53.20;;;;;;4936563;28;95739;-72
2022/06/17 10:56:20;;;;;;;5.70;4.10;;;30.70;53.10;;;;;;4953563;28;92480;-72
2022/06/17 10:59:04;;;;;;;4.82;4.43;;;30.60;53.10;;;;;;4938625;28;92478;-72
2022/06/17 11:01:53;;;;;;;5.68;5.28;;;30.70;52.90;;;;;;4936789;28;91871;-72
2022/06/17 11:04:26;;;;;;;4.13;3.70;;;30.70;51.80;;;;;;4938410;28;93133;-72
2022/06/17 11:07:01;;;;;;;10.30;4.82;;;30.60;51.80;;;;;;4938507;28;93006;-72
2022/06/17 11:09:35;;;;;;;7.68;5.43;;;30.70;51.80;;;;;;4935676;28;94937;-72
2022/06/17 11:12:08;;;;;;;5.82;4.00;;;30.80;51.90;;;;;;4938576;28;92429;-72
2022/06/17 11:14:48;;;;;;;6.80;5.55;;;30.90;51.90;;;;;;4938207;28;93146;-72
2022/06/17 11:17:20;;;;;;;4.32;3.92;;;31.10;51.60;;;;;;4953305;28;93025;-72
2022/06/17 11:19:51;;;;;;;5.97;4.80;;;31.20;51.80;;;;;;4936700;28;92473;-72
2022/06/17 11:22:34;;;;;;;7.30;4.93;;;31.30;51.10;;;;;;4938417;28;92367;-72
2022/06/17 11:25:19;;;;;;;5.68;4.00;;;31.60;50.40;;;;;;4938038;28;93405;-72
2022/06/17 11:27:55;;;;;;;8.93;4.18;;;31.60;50.40;;;;;;4938152;28;91804;-72
2022/06/17 11:30:28;;;;;;;4.82;4.18;;;31.80;49.70;;;;;;4938068;28;93238;-72
2022/06/17 11:32:57;;;;;;;5.40;4.82;;;31.90;50.00;;;;;;4936769;28;92629;-72
2022/06/17 11:35:28;;;;;;;5.28;4.78;;;31.80;50.10;;;;;;4935202;28;98832;-72
2022/06/17 11:37:57;;;;;;;5.85;4.38;;;31.90;50.40;;;;;;4937932;28;93933;-72
2022/06/17 11:40:33;;;;;;;6.78;5.30;;;31.90;50.00;;;;;;4936699;28;92429;-72
2022/06/17 11:43:03;;;;;;;6.03;5.50;;;31.90;49.00;;;;;;4937868;28;92482;-72
2022/06/17 11:45:32;;;;;;;6.53;5.10;;;31.80;49.00;;;;;;4937497;28;93199;-72
2022/06/17 11:48:10;;;;;;;5.57;4.95;;;31.80;49.40;;;;;;4937527;28;92804;-72
2022/06/17 11:50:41;;;;;;;6.03;5.45;;;31.70;49.20;;;;;;4935195;28;92486;-72
2022/06/17 11:53:17;;;;;;;5.53;5.03;;;31.70;49.70;;;;;;4938173;28;91594;-72
2022/06/17 11:55:48;;;;;;;5.32;4.60;;;31.70;49.80;;;;;;4935950;28;96197;-72
2022/06/17 11:58:53;;;;;;;5.25;4.75;;;31.80;50.40;;;;;;4937371;28;92991;-72
2022/06/17 12:01:20;;;;;;;7.88;5.18;;;32.00;49.50;;;;;;4935985;28;94758;-72
2022/06/17 12:03:47;;;;;;;6.25;4.90;;;31.80;49.40;;;;;;4937462;28;92401;-72
2022/06/17 12:06:19;;;;;;;5.00;4.50;;;31.80;49.70;;;;;;4920341;28;95711;-72
2022/06/17 12:09:10;;;;;;;6.20;5.70;;;31.80;49.30;;;;;;4936032;28;93010;-72
2022/06/17 12:11:50;;;;;;;6.38;4.47;;;31.90;48.30;;;;;;4937496;28;93116;-72
2022/06/17 12:14:43;;;;;;;8.85;5.05;;;31.70;49.30;;;;;;4937490;28;92402;-72
2022/06/17 12:17:12;;;;;;;;;;;31.60;49.50;;;;;;4936455;28;93179;-72
2022/06/17 12:19:58;;;;;;;5.93;4.97;;;31.50;50.10;;;;;;4938636;28;93988;-72
2022/06/17 12:22:32;;;;;;;8.20;5.22;;;31.50;49.50;;;;;;4936539;28;93166;-72
2022/06/17 12:25:34;;;;;;;5.63;4.93;;;31.80;49.20;;;;;;4937163;28;92548;-72
2022/06/17 12:28:19;;;;;;;6.28;5.40;;;31.90;47.90;;;;;;4935605;28;94750;-72
2022/06/17 12:31:20;;;;;;;5.85;4.90;;;31.80;47.90;;;;;;4936774;28;95332;-72
2022/06/17 12:34:08;;;;;;;4.63;4.22;;;31.80;47.20;;;;;;4937020;28;92572;-72
2022/06/17 12:36:56;;;;;;;5.78;3.63;;;31.80;47.80;;;;;;4937447;28;92873;-72
2022/06/17 12:39:39;;;;;;;5.15;4.53;;;32.00;48.40;;;;;;4937001;28;93577;-72
2022/06/17 12:42:31;;;;;;;;;;;32.20;47.80;;;;;;4937492;28;93114;-72
2022/06/17 12:45:18;;;;;;;5.97;4.45;;;32.10;46.40;;;;;;4937923;28;92393;-72
2022/06/17 12:48:24;;;;;;;8.82;4.28;;;32.10;46.40;;;;;;4930689;28;91902;-72
2022/06/17 12:54:28;;;;;;;5.63;5.13;;;32.30;47.10;;;;;;4936519;28;92888;-72
2022/06/17 12:56:59;;;;;;;5.82;4.00;;;32.30;46.20;;;;;;4950478;28;94817;-72
2022/06/17 12:59:54;;;;;;;5.70;4.03;;;32.20;47.00;;;;;;4935347;28;92433;-72
2022/06/17 13:02:28;;;;;;;4.63;4.00;;;32.20;46.00;;;;;;4935732;28;93252;-72
2022/06/17 13:05:14;;;;;;;4.88;4.20;;;32.20;45.60;;;;;;4936570;28;93083;-72
2022/06/17 13:08:02;;;;;;;6.38;3.63;;;32.20;45.80;;;;;;4934916;28;92526;-72
2022/06/17 13:10:44;;;;;;;3.75;3.45;;;32.40;46.10;;;;;;4936794;28;92322;-71
2022/06/17 13:13:43;;;;;;;3.80;3.42;;;32.40;44.90;;;;;;4934891;28;96144;-72
2022/06/17 13:16:25;;;;;;;7.50;3.85;;;32.30;45.00;;;;;;4900493;28;96632;-72
2022/06/17 13:19:30;;;;;;;5.22;4.72;;;32.40;45.20;;;;;;4936444;28;92641;-72
2022/06/17 13:22:04;;;;;;;4.28;3.88;;;32.50;44.40;;;;;;4936238;28;92434;-72
2022/06/17 13:24:44;;;;;;;4.65;4.22;;;32.50;44.80;;;;;;4933858;28;98212;-72
2022/06/17 13:27:28;;;;;;;5.35;4.15;;;32.60;44.50;;;;;;4936260;28;97816;-72
2022/06/17 13:30:17;;;;;;;4.00;3.70;;;32.50;44.80;;;;;;4934818;28;92568;-72
2022/06/17 13:32:57;;;;;;;5.00;4.38;;;32.70;44.90;;;;;;4936267;28;92467;-72
2022/06/17 13:35:35;;;;;;;5.20;4.32;;;32.90;44.60;;;;;;4934887;28;94203;-72
2022/06/17 13:38:09;;;;;;;4.00;3.60;;;32.90;44.60;;;;;;4936015;28;92982;-72
2022/06/17 13:40:38;;;;;;;4.85;3.60;;;33.10;44.30;;;;;;4936351;28;92772;-72